createdAt,value
2023-03-06T08:07:13.608Z,54.85
2023-03-06T08:09:40.704Z,56.28
2023-03-06T08:12:30.760Z,56.95
2023-03-06T08:14:58.902Z,60.28
2023-03-06T08:17:26.126Z,61.13
2023-03-06T08:19:53.553Z,63.28
2023-03-06T08:22:21.095Z,63.85
2023-03-06T08:24:49.954Z,62.00
2023-03-06T08:27:17.078Z,59.80
2023-03-06T08:32:30.038Z,48.92
2023-03-06T08:34:58.882Z,46.10
2023-03-06T08:37:26.124Z,48.72
2023-03-06T08:39:56.381Z,48.70
2023-03-06T08:42:26.174Z,49.42
2023-03-06T08:44:56.398Z,48.88
2023-03-06T08:47:24.492Z,48.42
2023-03-06T08:49:51.653Z,48.47
2023-03-06T08:52:20.135Z,48.50
2023-03-06T08:54:56.240Z,51.38
2023-03-06T08:57:24.265Z,51.25
2023-03-06T08:59:51.625Z,50.35
2023-03-06T09:02:19.002Z,87.78
2023-03-06T09:04:46.709Z,90.82
2023-03-06T09:07:15.559Z,97.68
2023-03-06T09:09:42.943Z,93.80
2023-03-06T09:12:14.317Z,97.50
2023-03-06T09:14:44.197Z,97.28
2023-03-06T09:17:12.246Z,93.00
2023-03-06T09:19:44.704Z,95.45
2023-03-06T09:22:14.506Z,82.57
2023-03-06T09:24:46.309Z,82.80
2023-03-06T09:27:25.520Z,82.43
2023-03-06T09:38:20.324Z,63.70
2023-03-06T09:44:33.259Z,44.78
2023-03-06T10:38:39.020Z,30.00
2023-03-06T10:41:27.813Z,31.17
2023-03-06T10:44:01.372Z,30.90
2023-03-06T10:46:33.740Z,30.55
2023-03-06T10:49:13.060Z,30.65
2023-03-06T11:00:26.149Z,29.05
2023-03-06T11:03:31.237Z,28.00
2023-03-06T11:18:55.466Z,30.85
2023-03-06T11:21:37.525Z,26.98
2023-03-06T11:24:08.602Z,32.10
2023-03-06T11:27:01.357Z,30.00
2023-03-06T11:29:40.837Z,27.77
2023-03-06T11:35:10.443Z,23.63
2023-03-06T11:38:17.363Z,21.58
2023-03-06T11:40:58.461Z,20.15
2023-03-06T11:50:32.155Z,22.23
2023-03-06T11:53:04.532Z,24.35
2023-03-06T12:02:49.129Z,17.13
2023-03-06T12:05:28.633Z,15.50
2023-03-06T12:41:33.462Z,11.98
2023-03-06T12:44:23.002Z,10.82
2023-03-06T12:47:00.126Z,9.07
2023-03-06T12:49:41.883Z,8.50
2023-03-06T12:52:18.714Z,10.35
2023-03-06T12:54:48.711Z,9.93
2023-03-06T13:01:37.544Z,8.73
2023-03-06T13:04:17.030Z,9.10
2023-03-06T13:07:09.176Z,10.75
2023-03-06T13:10:05.156Z,11.18
2023-03-06T13:12:47.341Z,10.73
2023-03-06T13:15:28.487Z,11.68
2023-03-06T13:17:56.069Z,8.52
2023-03-06T13:20:29.471Z,10.18
2023-03-06T13:22:57.098Z,9.18
2023-03-06T13:25:24.279Z,8.85
2023-03-06T13:44:08.525Z,10.35
2023-03-06T13:46:52.389Z,12.13
2023-03-06T13:49:46.094Z,10.60
2023-03-06T14:00:39.969Z,7.57
2023-03-06T14:03:11.052Z,7.05
2023-03-06T14:06:24.484Z,7.28
2023-03-06T14:08:54.692Z,7.63
2023-03-06T14:11:22.111Z,7.03
2023-03-06T14:13:51.021Z,7.38
2023-03-06T14:16:27.850Z,7.35
2023-03-06T14:18:57.384Z,7.57
2023-03-06T14:21:45.878Z,8.85
2023-03-06T14:24:20.567Z,8.55
2023-03-06T14:26:50.818Z,7.15
2023-03-06T14:29:25.637Z,8.20
2023-03-06T14:32:11.695Z,7.18
2023-03-06T14:34:43.255Z,9.60
2023-03-06T14:37:20.445Z,9.98
2023-03-06T14:40:19.785Z,10.27
2023-03-06T14:42:58.559Z,12.65
2023-03-06T14:45:27.866Z,8.00
2023-03-06T14:48:13.674Z,6.75
2023-03-06T14:51:39.979Z,7.55
2023-03-06T14:54:08.809Z,8.02
2023-03-06T15:03:01.002Z,8.55
2023-03-06T15:22:09.456Z,15.25
2023-03-06T15:30:50.075Z,11.95
2023-03-06T15:41:38.180Z,13.73
2023-03-06T16:08:09.220Z,17.77
2023-03-06T16:11:59.440Z,16.05
2023-03-06T16:24:09.629Z,74.60
2023-03-06T16:29:22.946Z,69.78
2023-03-06T16:31:50.517Z,71.28
2023-03-06T16:34:21.939Z,67.78
2023-03-06T16:36:49.400Z,58.47
2023-03-06T16:39:22.181Z,72.28
2023-03-06T16:41:52.508Z,70.85
2023-03-06T16:44:20.484Z,71.60
2023-03-06T16:46:48.871Z,69.30
2023-03-06T16:49:20.420Z,72.47
2023-03-06T16:51:50.364Z,76.18
2023-03-06T16:54:17.848Z,52.72
2023-03-06T16:56:45.495Z,32.53
2023-03-06T16:59:12.768Z,29.67
2023-03-06T17:01:40.594Z,28.30
2023-03-06T17:04:07.970Z,32.97
2023-03-06T17:06:35.476Z,25.70
2023-03-06T17:09:02.680Z,29.88
2023-03-06T17:11:30.776Z,33.60
2023-03-06T17:13:58.081Z,34.78
2023-03-06T17:16:27.833Z,31.60
2023-03-06T17:18:55.289Z,32.70
2023-03-06T17:21:24.889Z,27.63
2023-03-06T17:23:52.044Z,26.88
2023-03-06T17:26:19.776Z,29.10
2023-03-06T17:28:47.384Z,31.08
2023-03-06T17:31:19.070Z,30.38
2023-03-06T17:33:48.940Z,28.58
2023-03-06T17:36:17.092Z,19.40
2023-03-06T17:38:44.477Z,22.33
2023-03-06T17:41:11.833Z,19.17
2023-03-06T17:43:39.537Z,20.67
2023-03-06T17:46:11.329Z,20.88
2023-03-06T17:48:39.736Z,19.30
2023-03-06T17:51:06.904Z,21.27
2023-03-06T17:53:34.165Z,18.83
2023-03-06T17:56:04.020Z,17.50
2023-03-06T18:01:21.236Z,16.70
2023-03-06T18:12:05.074Z,19.95
2023-03-06T18:25:24.033Z,21.15
2023-03-06T18:27:52.943Z,22.65
2023-03-06T18:39:01.463Z,24.90
2023-03-06T18:41:29.779Z,24.67
2023-03-06T18:46:41.856Z,26.25
2023-03-06T18:49:09.348Z,26.92
2023-03-06T18:51:40.363Z,25.35
2023-03-06T18:54:08.012Z,25.65
2023-03-06T18:56:35.347Z,27.17
2023-03-06T18:59:10.722Z,26.73
2023-03-06T19:04:31.704Z,32.20
2023-03-06T19:07:17.651Z,29.10
2023-03-06T19:09:55.137Z,26.25
2023-03-06T19:15:09.649Z,26.77
2023-03-06T19:17:40.840Z,26.85
2023-03-06T19:20:28.788Z,32.03
2023-03-06T19:22:56.019Z,55.60
2023-03-06T19:25:23.481Z,81.57
2023-03-06T19:28:07.384Z,92.18
2023-03-06T19:30:40.119Z,56.15
2023-03-06T19:33:08.092Z,60.90
2023-03-06T19:35:39.163Z,53.28
2023-03-06T19:38:07.614Z,50.88
2023-03-06T19:40:37.123Z,54.20
2023-03-06T19:43:15.832Z,51.88
2023-03-06T19:49:03.893Z,67.47
2023-03-06T19:51:34.833Z,64.65
2023-03-06T19:54:21.152Z,77.18
2023-03-06T19:57:29.154Z,72.47
2023-03-06T20:00:00.972Z,102.45
2023-03-06T20:03:02.372Z,103.32
2023-03-06T20:05:30.657Z,89.90
2023-03-06T20:07:58.724Z,91.20
2023-03-06T20:14:14.707Z,98.68
2023-03-06T20:16:35.610Z,102.00
2023-03-06T20:19:02.888Z,103.03
2023-03-06T20:21:31.631Z,108.30
2023-03-06T20:24:01.669Z,106.03
2023-03-06T20:26:32.055Z,91.80
2023-03-06T20:29:01.415Z,90.30
2023-03-06T20:31:36.047Z,88.38
2023-03-06T20:34:03.383Z,88.68
2023-03-06T20:36:38.602Z,86.03
2023-03-06T20:39:10.951Z,82.72
2023-03-06T20:41:38.418Z,88.55
2023-03-06T20:53:37.380Z,90.28
2023-03-06T20:56:08.506Z,89.82
2023-03-06T20:58:39.587Z,90.68
2023-03-06T21:01:10.218Z,113.22
2023-03-06T21:08:48.008Z,136.82
2023-03-06T21:11:35.847Z,126.90
2023-03-06T21:14:09.923Z,135.75
2023-03-06T21:16:37.201Z,140.95
2023-03-06T21:19:07.592Z,132.18
2023-03-06T21:21:45.836Z,122.78
2023-03-06T21:24:14.573Z,120.45
2023-03-06T21:26:44.735Z,113.47
2023-03-06T21:29:23.528Z,117.43
2023-03-06T21:31:50.864Z,119.13
2023-03-06T21:34:24.683Z,122.43
2023-03-06T21:36:54.140Z,102.43
2023-03-06T21:39:22.727Z,104.05
2023-03-06T21:41:55.708Z,89.63
2023-03-06T21:44:23.178Z,83.43
2023-03-06T21:46:50.422Z,88.18
2023-03-06T21:49:18.481Z,91.88
2023-03-06T21:51:45.916Z,98.03
2023-03-06T21:54:16.056Z,98.28
2023-03-06T21:57:04.119Z,111.00
2023-03-06T21:59:41.138Z,106.78
2023-03-06T22:02:24.946Z,109.43
2023-03-06T22:04:53.755Z,111.55
2023-03-06T22:07:23.216Z,107.88
2023-03-06T22:09:53.473Z,105.57
2023-03-06T22:12:22.098Z,113.32
2023-03-06T22:14:49.288Z,108.63
2023-03-06T22:17:16.524Z,89.20
2023-03-06T22:19:43.652Z,101.18
2023-03-06T22:22:14.428Z,103.82
2023-03-06T22:24:42.086Z,100.65
2023-03-06T22:27:21.751Z,96.40
2023-03-06T22:29:49.159Z,82.00
2023-03-06T22:32:19.123Z,73.65
2023-03-06T22:34:46.407Z,69.22
2023-03-06T22:37:13.568Z,68.43
2023-03-06T22:39:42.455Z,82.70
2023-03-06T22:42:10.091Z,98.63
2023-03-06T22:44:37.524Z,89.60
2023-03-06T22:47:04.712Z,76.40
2023-03-06T22:49:32.607Z,76.25
2023-03-06T22:51:59.945Z,77.75
2023-03-06T22:54:34.303Z,79.25
2023-03-06T22:57:01.447Z,66.82
2023-03-06T22:59:28.653Z,69.32
2023-03-06T23:01:55.888Z,72.50
2023-03-06T23:04:27.572Z,83.22
2023-03-06T23:10:16.468Z,93.80
2023-03-06T23:12:46.747Z,91.07
2023-03-06T23:15:17.062Z,92.75
2023-03-06T23:17:50.050Z,86.13
2023-03-06T23:20:17.630Z,93.60
2023-03-06T23:22:45.030Z,93.35
2023-03-06T23:25:12.345Z,92.13
2023-03-06T23:27:39.840Z,92.18
2023-03-06T23:30:09.099Z,90.97
2023-03-06T23:32:36.245Z,86.78
2023-03-06T23:35:03.456Z,96.60
2023-03-06T23:37:30.565Z,105.18
2023-03-06T23:39:59.987Z,98.97
2023-03-06T23:42:27.277Z,83.95
2023-03-06T23:44:54.338Z,77.47
2023-03-06T23:47:21.489Z,77.43
2023-03-06T23:49:48.619Z,61.78
2023-03-06T23:52:15.682Z,66.82
2023-03-06T23:54:42.778Z,66.53
2023-03-06T23:57:09.870Z,74.32
2023-03-06T23:59:45.335Z,80.47
